sensor_id;sensor_type;location;lat;lon;timestamp;P1;durP1;ratioP1;P2;durP2;ratioP2
42666;SDS011;28280;49.646;14.130;2023-07-20T00:03:59;3.97;;;2.13;;
42666;SDS011;28280;49.646;14.130;2023-07-20T00:14:20;2.70;;;1.83;;
42666;SDS011;28280;49.646;14.130;2023-07-20T00:24:43;2.63;;;1.88;;
42666;SDS011;28280;49.646;14.130;2023-07-20T00:35:04;4.25;;;2.20;;
42666;SDS011;28280;49.646;14.130;2023-07-20T00:45:26;2.97;;;1.95;;
42666;SDS011;28280;49.646;14.130;2023-07-20T00:55:47;2.10;;;1.77;;
42666;SDS011;28280;49.646;14.130;2023-07-20T01:06:20;2.25;;;1.58;;
42666;SDS011;28280;49.646;14.130;2023-07-20T01:16:45;4.15;;;2.00;;
42666;SDS011;28280;49.646;14.130;2023-07-20T01:37:37;4.03;;;1.73;;
42666;SDS011;28280;49.646;14.130;2023-07-20T01:47:59;2.53;;;1.90;;
42666;SDS011;28280;49.646;14.130;2023-07-20T01:58:20;2.53;;;1.70;;
42666;SDS011;28280;49.646;14.130;2023-07-20T02:08:42;4.03;;;1.70;;
42666;SDS011;28280;49.646;14.130;2023-07-20T02:19:03;2.42;;;1.75;;
42666;SDS011;28280;49.646;14.130;2023-07-20T02:29:27;2.70;;;1.75;;
42666;SDS011;28280;49.646;14.130;2023-07-20T02:39:49;2.25;;;1.73;;
42666;SDS011;28280;49.646;14.130;2023-07-20T02:50:10;4.25;;;2.28;;
42666;SDS011;28280;49.646;14.130;2023-07-20T03:10:56;2.28;;;1.80;;
42666;SDS011;28280;49.646;14.130;2023-07-20T03:21:18;3.78;;;1.85;;
42666;SDS011;28280;49.646;14.130;2023-07-20T03:31:39;3.72;;;1.80;;
42666;SDS011;28280;49.646;14.130;2023-07-20T03:42:02;3.03;;;2.00;;
42666;SDS011;28280;49.646;14.130;2023-07-20T03:52:24;4.45;;;2.20;;
42666;SDS011;28280;49.646;14.130;2023-07-20T04:02:45;2.50;;;1.80;;
42666;SDS011;28280;49.646;14.130;2023-07-20T04:13:07;2.63;;;1.55;;
42666;SDS011;28280;49.646;14.130;2023-07-20T04:23:29;2.45;;;1.67;;
42666;SDS011;28280;49.646;14.130;2023-07-20T04:33:51;2.35;;;1.60;;
42666;SDS011;28280;49.646;14.130;2023-07-20T04:44:13;2.72;;;2.00;;
42666;SDS011;28280;49.646;14.130;2023-07-20T04:54:34;5.25;;;2.15;;
42666;SDS011;28280;49.646;14.130;2023-07-20T05:04:57;2.20;;;1.90;;
42666;SDS011;28280;49.646;14.130;2023-07-20T05:15:19;3.08;;;1.92;;
42666;SDS011;28280;49.646;14.130;2023-07-20T05:25:40;3.25;;;2.00;;
42666;SDS011;28280;49.646;14.130;2023-07-20T05:36:02;2.40;;;1.90;;
42666;SDS011;28280;49.646;14.130;2023-07-20T05:46:23;3.60;;;1.73;;
42666;SDS011;28280;49.646;14.130;2023-07-20T05:56:49;2.45;;;1.83;;
42666;SDS011;28280;49.646;14.130;2023-07-20T06:07:10;2.25;;;1.63;;
42666;SDS011;28280;49.646;14.130;2023-07-20T06:17:32;2.50;;;1.90;;
42666;SDS011;28280;49.646;14.130;2023-07-20T06:27:54;3.53;;;1.70;;
42666;SDS011;28280;49.646;14.130;2023-07-20T06:38:16;3.33;;;1.80;;
42666;SDS011;28280;49.646;14.130;2023-07-20T06:48:41;3.20;;;2.10;;
42666;SDS011;28280;49.646;14.130;2023-07-20T06:59:05;2.83;;;1.50;;
42666;SDS011;28280;49.646;14.130;2023-07-20T07:09:26;2.42;;;1.85;;
42666;SDS011;28280;49.646;14.130;2023-07-20T07:19:48;4.20;;;2.03;;
42666;SDS011;28280;49.646;14.130;2023-07-20T07:30:10;2.92;;;2.15;;
42666;SDS011;28280;49.646;14.130;2023-07-20T07:40:32;3.20;;;2.00;;
42666;SDS011;28280;49.646;14.130;2023-07-20T07:50:54;2.63;;;1.95;;
42666;SDS011;28280;49.646;14.130;2023-07-20T08:01:15;3.05;;;1.83;;
42666;SDS011;28280;49.646;14.130;2023-07-20T08:11:39;3.22;;;1.80;;
42666;SDS011;28280;49.646;14.130;2023-07-20T08:22:01;2.67;;;1.67;;
42666;SDS011;28280;49.646;14.130;2023-07-20T08:32:22;2.38;;;1.98;;
42666;SDS011;28280;49.646;14.130;2023-07-20T08:42:44;2.22;;;1.70;;
42666;SDS011;28280;49.646;14.130;2023-07-20T08:53:06;2.38;;;1.60;;
42666;SDS011;28280;49.646;14.130;2023-07-20T09:03:27;1.80;;;1.60;;
42666;SDS011;28280;49.646;14.130;2023-07-20T09:14:01;2.75;;;1.67;;
42666;SDS011;28280;49.646;14.130;2023-07-20T09:24:24;2.03;;;1.50;;
42666;SDS011;28280;49.646;14.130;2023-07-20T09:34:46;1.83;;;1.50;;
42666;SDS011;28280;49.646;14.130;2023-07-20T09:45:09;2.13;;;1.52;;
42666;SDS011;28280;49.646;14.130;2023-07-20T09:55:31;2.22;;;1.58;;
42666;SDS011;28280;49.646;14.130;2023-07-20T10:05:55;2.08;;;1.60;;
42666;SDS011;28280;49.646;14.130;2023-07-20T10:16:28;2.85;;;1.80;;
42666;SDS011;28280;49.646;14.130;2023-07-20T10:26:50;2.80;;;1.70;;
42666;SDS011;28280;49.646;14.130;2023-07-20T10:37:22;1.90;;;1.65;;
42666;SDS011;28280;49.646;14.130;2023-07-20T10:48:13;2.55;;;1.55;;
42666;SDS011;28280;49.646;14.130;2023-07-20T10:58:39;2.33;;;1.73;;
42666;SDS011;28280;49.646;14.130;2023-07-20T11:09:10;2.78;;;1.50;;
42666;SDS011;28280;49.646;14.130;2023-07-20T11:19:35;2.70;;;1.80;;
42666;SDS011;28280;49.646;14.130;2023-07-20T11:29:59;1.98;;;1.67;;
42666;SDS011;28280;49.646;14.130;2023-07-20T11:40:22;2.17;;;1.40;;
42666;SDS011;28280;49.646;14.130;2023-07-20T11:50:47;4.65;;;1.80;;
42666;SDS011;28280;49.646;14.130;2023-07-20T12:01:08;2.10;;;1.50;;
42666;SDS011;28280;49.646;14.130;2023-07-20T12:11:36;4.60;;;2.40;;
42666;SDS011;28280;49.646;14.130;2023-07-20T12:21:58;2.85;;;1.50;;
42666;SDS011;28280;49.646;14.130;2023-07-20T12:32:20;2.28;;;1.55;;
42666;SDS011;28280;49.646;14.130;2023-07-20T12:42:41;1.88;;;1.50;;
42666;SDS011;28280;49.646;14.130;2023-07-20T12:53:03;2.22;;;1.55;;
42666;SDS011;28280;49.646;14.130;2023-07-20T13:03:25;2.17;;;1.42;;
42666;SDS011;28280;49.646;14.130;2023-07-20T13:13:49;2.65;;;1.50;;
42666;SDS011;28280;49.646;14.130;2023-07-20T13:24:10;2.53;;;1.58;;
42666;SDS011;28280;49.646;14.130;2023-07-20T13:34:31;1.65;;;1.40;;
42666;SDS011;28280;49.646;14.130;2023-07-20T13:44:53;5.05;;;1.38;;
42666;SDS011;28280;49.646;14.130;2023-07-20T13:55:16;1.83;;;1.40;;
42666;SDS011;28280;49.646;14.130;2023-07-20T14:05:58;1.70;;;1.50;;
42666;SDS011;28280;49.646;14.130;2023-07-20T14:16:22;1.90;;;1.33;;
42666;SDS011;28280;49.646;14.130;2023-07-20T14:26:46;2.30;;;1.35;;
42666;SDS011;28280;49.646;14.130;2023-07-20T14:37:12;3.88;;;1.85;;
42666;SDS011;28280;49.646;14.130;2023-07-20T14:47:34;4.22;;;1.40;;
42666;SDS011;28280;49.646;14.130;2023-07-20T14:57:57;4.27;;;1.50;;
42666;SDS011;28280;49.646;14.130;2023-07-20T15:08:18;2.35;;;1.48;;
42666;SDS011;28280;49.646;14.130;2023-07-20T15:18:39;1.67;;;1.08;;
42666;SDS011;28280;49.646;14.130;2023-07-20T15:29:08;2.40;;;1.35;;
42666;SDS011;28280;49.646;14.130;2023-07-20T15:39:49;2.47;;;1.70;;
42666;SDS011;28280;49.646;14.130;2023-07-20T15:50:15;2.53;;;1.50;;
42666;SDS011;28280;49.646;14.130;2023-07-20T16:00:37;2.58;;;1.50;;
42666;SDS011;28280;49.646;14.130;2023-07-20T16:10:58;2.80;;;1.35;;
42666;SDS011;28280;49.646;14.130;2023-07-20T16:21:20;2.53;;;1.52;;
42666;SDS011;28280;49.646;14.130;2023-07-20T16:31:43;3.17;;;1.55;;
42666;SDS011;28280;49.646;14.130;2023-07-20T16:42:08;1.90;;;1.30;;
42666;SDS011;28280;49.646;14.130;2023-07-20T16:52:31;2.47;;;1.30;;
42666;SDS011;28280;49.646;14.130;2023-07-20T17:02:52;1.65;;;1.30;;
42666;SDS011;28280;49.646;14.130;2023-07-20T17:13:14;2.80;;;1.48;;
42666;SDS011;28280;49.646;14.130;2023-07-20T17:23:37;3.70;;;1.20;;
42666;SDS011;28280;49.646;14.130;2023-07-20T17:34:02;2.47;;;1.50;;
42666;SDS011;28280;49.646;14.130;2023-07-20T17:44:23;2.28;;;1.05;;
42666;SDS011;28280;49.646;14.130;2023-07-20T17:54:45;2.00;;;1.23;;
42666;SDS011;28280;49.646;14.130;2023-07-20T18:05:06;1.60;;;1.30;;
42666;SDS011;28280;49.646;14.130;2023-07-20T18:15:28;1.40;;;1.17;;
42666;SDS011;28280;49.646;14.130;2023-07-20T18:25:49;2.30;;;1.27;;
42666;SDS011;28280;49.646;14.130;2023-07-20T18:36:10;1.55;;;1.17;;
42666;SDS011;28280;49.646;14.130;2023-07-20T18:46:31;2.95;;;1.42;;
42666;SDS011;28280;49.646;14.130;2023-07-20T18:56:53;2.42;;;1.30;;
42666;SDS011;28280;49.646;14.130;2023-07-20T19:07:14;1.38;;;1.17;;
42666;SDS011;28280;49.646;14.130;2023-07-20T19:17:35;2.78;;;1.40;;
42666;SDS011;28280;49.646;14.130;2023-07-20T19:27:56;2.38;;;1.50;;
42666;SDS011;28280;49.646;14.130;2023-07-20T19:38:24;2.28;;;1.40;;
42666;SDS011;28280;49.646;14.130;2023-07-20T19:48:47;3.17;;;1.50;;
42666;SDS011;28280;49.646;14.130;2023-07-20T19:59:08;1.98;;;1.60;;
42666;SDS011;28280;49.646;14.130;2023-07-20T20:09:33;1.67;;;1.48;;
42666;SDS011;28280;49.646;14.130;2023-07-20T20:19:54;2.67;;;1.27;;
42666;SDS011;28280;49.646;14.130;2023-07-20T20:30:15;2.08;;;1.40;;
42666;SDS011;28280;49.646;14.130;2023-07-20T20:40:42;1.75;;;1.45;;
42666;SDS011;28280;49.646;14.130;2023-07-20T20:51:06;2.53;;;1.23;;
42666;SDS011;28280;49.646;14.130;2023-07-20T21:01:27;1.63;;;1.23;;
42666;SDS011;28280;49.646;14.130;2023-07-20T21:11:48;1.80;;;1.38;;
42666;SDS011;28280;49.646;14.130;2023-07-20T21:22:10;2.53;;;1.58;;
42666;SDS011;28280;49.646;14.130;2023-07-20T21:32:31;1.92;;;1.30;;
42666;SDS011;28280;49.646;14.130;2023-07-20T21:42:52;1.67;;;1.30;;
42666;SDS011;28280;49.646;14.130;2023-07-20T21:53:13;1.58;;;1.42;;
42666;SDS011;28280;49.646;14.130;2023-07-20T22:03:35;2.65;;;1.45;;
42666;SDS011;28280;49.646;14.130;2023-07-20T22:13:57;1.98;;;1.50;;
42666;SDS011;28280;49.646;14.130;2023-07-20T22:24:18;2.85;;;1.42;;
42666;SDS011;28280;49.646;14.130;2023-07-20T22:34:41;1.92;;;1.33;;
42666;SDS011;28280;49.646;14.130;2023-07-20T22:45:02;2.33;;;1.55;;
42666;SDS011;28280;49.646;14.130;2023-07-20T22:55:28;1.75;;;1.35;;
42666;SDS011;28280;49.646;14.130;2023-07-20T23:05:49;2.30;;;1.45;;
42666;SDS011;28280;49.646;14.130;2023-07-20T23:16:11;3.53;;;1.67;;
42666;SDS011;28280;49.646;14.130;2023-07-20T23:26:33;1.83;;;1.50;;
42666;SDS011;28280;49.646;14.130;2023-07-20T23:36:54;2.42;;;1.50;;
42666;SDS011;28280;49.646;14.130;2023-07-20T23:47:15;2.22;;;1.40;;
42666;SDS011;28280;49.646;14.130;2023-07-20T23:57:37;2.42;;;1.35;;
